Time;durP1;ratioP1;P1;durP2;ratioP2;P2;SDS_P1;SDS_P2;PMS_P1;PMS_P2;Temp;Humidity;BMP_temperature;BMP_pressure;BME280_temperature;BME280_humidity;BME280_pressure;Samples;Min_cycle;Max_cycle;Signal;HPM_P1;HPM_P2
2022/06/03 00:02:18;;;;;;;3.73;2.10;;;20.50;29.00;;;;;;10553276;27;20246;-73
2022/06/03 00:07:32;;;;;;;2.80;2.60;;;20.50;29.00;;;;;;10528928;28;20238;-73
2022/06/03 00:12:59;;;;;;;3.00;2.80;;;20.40;29.10;;;;;;10552391;28;20234;-73
2022/06/03 00:18:27;;;;;;;2.60;2.50;;;20.30;29.10;;;;;;10537189;28;20619;-71
2022/06/03 00:24:01;;;;;;;3.50;2.30;;;20.30;29.30;;;;;;10543697;28;20936;-73
2022/06/03 00:29:30;;;;;;;2.50;2.40;;;20.20;29.10;;;;;;10551508;28;20215;-74
2022/06/03 00:35:01;;;;;;;2.80;2.60;;;20.10;29.30;;;;;;10549034;28;20228;-74
2022/06/03 00:40:27;;;;;;;2.77;2.57;;;20.00;29.10;;;;;;10548644;28;20223;-73
2022/06/03 00:45:59;;;;;;;2.97;2.70;;;19.90;29.30;;;;;;10559479;27;20258;-73
2022/06/03 00:51:41;;;;;;;2.70;2.60;;;19.90;29.30;;;;;;10550773;28;20219;-74
2022/06/03 00:57:21;;;;;;;3.53;3.23;;;19.70;29.40;;;;;;10547401;28;20702;-73
2022/06/03 01:02:35;;;;;;;2.80;2.60;;;19.60;29.60;;;;;;10514666;28;20364;-73
2022/06/03 01:07:52;;;;;;;3.30;3.10;;;19.40;29.80;;;;;;10538632;28;20272;-73
2022/06/03 01:13:23;;;;;;;3.43;2.90;;;19.40;30.00;;;;;;10552000;28;21128;-74
2022/06/03 01:18:43;;;;;;;3.00;2.80;;;19.30;29.80;;;;;;10543046;28;21558;-72
2022/06/03 01:24:16;;;;;;;3.40;3.10;;;19.30;30.10;;;;;;10548451;28;20343;-74
2022/06/03 01:29:50;;;;;;;2.80;2.60;;;19.20;30.00;;;;;;10544209;28;20215;-73
2022/06/03 01:35:23;;;;;;;2.47;2.37;;;19.10;30.00;;;;;;10550534;28;20229;-73
2022/06/03 01:40:41;;;;;;;3.10;2.90;;;19.10;30.20;;;;;;10563981;27;20239;-73
2022/06/03 01:46:03;;;;;;;2.77;2.57;;;19.00;30.40;;;;;;10565389;27;20850;-73
2022/06/03 01:51:29;;;;;;;2.73;2.30;;;19.00;30.40;;;;;;10537201;27;20214;-73
2022/06/03 01:56:57;;;;;;;2.50;2.40;;;18.90;30.10;;;;;;10558194;28;20223;-74
2022/06/03 02:02:49;;;;;;;2.80;2.60;;;18.90;30.20;;;;;;10558093;27;20243;-73
2022/06/03 02:08:20;;;;;;;2.63;2.43;;;18.80;30.30;;;;;;10559995;28;20227;-73
2022/06/03 02:13:50;;;;;;;2.60;2.50;;;18.70;30.40;;;;;;10558405;27;20227;-73
2022/06/03 02:19:27;;;;;;;3.10;2.90;;;18.60;30.50;;;;;;10557461;28;20227;-73
2022/06/03 02:25:07;;;;;;;3.10;2.90;;;18.60;30.70;;;;;;10553944;27;20233;-73
2022/06/03 02:30:42;;;;;;;3.10;2.80;;;18.50;30.50;;;;;;10535386;28;20215;-73
2022/06/03 02:36:07;;;;;;;3.60;3.07;;;18.40;31.00;;;;;;10555820;28;20242;-73
2022/06/03 02:41:55;;;;;;;3.40;3.07;;;18.40;31.30;;;;;;10548431;28;20219;-73
2022/06/03 02:47:29;;;;;;;3.13;2.87;;;18.30;30.80;;;;;;10552757;27;20228;-73
2022/06/03 02:53:12;;;;;;;3.30;3.00;;;18.10;30.90;;;;;;10556070;28;20273;-73
2022/06/03 02:58:59;;;;;;;2.87;2.67;;;18.00;31.20;;;;;;10518588;27;20310;-72
2022/06/03 03:04:17;;;;;;;2.80;2.60;;;18.00;31.00;;;;;;10551450;27;20226;-72
2022/06/03 03:09:56;;;;;;;3.57;3.27;;;17.90;31.50;;;;;;10546669;28;20219;-73
2022/06/03 03:15:21;;;;;;;3.10;2.90;;;17.80;31.90;;;;;;10502391;28;20242;-73
2022/06/03 03:20:54;;;;;;;3.57;3.27;;;17.80;32.00;;;;;;10546517;28;20226;-73
2022/06/03 03:26:07;;;;;;;3.00;2.80;;;17.70;32.20;;;;;;10558492;27;20220;-73
2022/06/03 03:31:34;;;;;;;3.60;3.30;;;17.70;32.20;;;;;;10538702;28;20216;-73
2022/06/03 03:37:06;;;;;;;3.37;3.10;;;17.60;32.50;;;;;;10558099;28;20260;-73
2022/06/03 03:42:52;;;;;;;3.63;3.43;;;17.60;32.80;;;;;;10510714;28;20216;-73
2022/06/03 03:48:37;;;;;;;3.50;3.20;;;17.60;32.60;;;;;;10509778;28;20222;-73
2022/06/03 03:54:28;;;;;;;3.33;3.13;;;17.60;32.20;;;;;;10534400;28;20228;-73
2022/06/03 04:00:05;;;;;;;3.63;3.40;;;17.50;32.30;;;;;;10551148;27;20227;-72
2022/06/03 04:05:39;;;;;;;3.70;3.40;;;17.40;32.50;;;;;;10550645;28;20309;-73
2022/06/03 04:11:10;;;;;;;3.40;3.20;;;17.40;32.90;;;;;;10551783;28;20702;-73
2022/06/03 04:16:44;;;;;;;3.47;3.10;;;17.40;34.10;;;;;;10528224;28;20232;-73
2022/06/03 04:22:09;;;;;;;3.77;3.47;;;17.40;33.30;;;;;;10540197;28;20219;-74
2022/06/03 04:28:01;;;;;;;3.63;3.33;;;17.50;34.30;;;;;;10546079;28;20214;-73
2022/06/03 04:33:35;;;;;;;3.30;3.10;;;17.50;34.20;;;;;;10543943;28;20227;-74
2022/06/03 04:39:16;;;;;;;3.90;3.60;;;17.50;34.30;;;;;;10524404;28;20230;-73
2022/06/03 04:45:10;;;;;;;3.43;3.20;;;17.60;33.90;;;;;;10521821;28;20237;-73
2022/06/03 04:50:51;;;;;;;3.47;3.27;;;17.70;33.70;;;;;;10543480;28;20211;-73
2022/06/03 04:56:42;;;;;;;3.70;3.40;;;17.70;34.10;;;;;;10544658;28;20243;-73
2022/06/03 05:02:31;;;;;;;3.20;3.00;;;17.70;34.00;;;;;;10539720;28;20237;-73
2022/06/03 05:08:31;;;;;;;3.67;3.37;;;17.80;33.90;;;;;;10552726;28;20706;-73
2022/06/03 05:14:25;;;;;;;3.67;3.43;;;17.80;34.40;;;;;;10465888;28;20224;-73
2022/06/03 05:20:01;;;;;;;3.37;3.07;;;17.90;34.70;;;;;;10512814;28;20699;-74
2022/06/03 05:25:42;;;;;;;3.43;3.23;;;18.00;34.70;;;;;;10540105;27;20222;-74
2022/06/03 05:31:11;;;;;;;3.60;3.30;;;18.10;34.80;;;;;;10548468;27;20229;-74
2022/06/03 05:36:47;;;;;;;4.30;4.00;;;18.30;35.60;;;;;;10555705;28;20226;-73
2022/06/03 05:42:28;;;;;;;3.70;3.40;;;18.40;35.10;;;;;;10553414;28;20229;-74
2022/06/03 05:47:36;;;;;;;4.73;4.27;;;18.60;35.30;;;;;;10557415;27;20215;-74
2022/06/03 05:52:52;;;;;;;4.73;4.10;;;18.80;35.50;;;;;;10549576;27;20227;-75
2022/06/03 05:58:11;;;;;;;4.37;4.07;;;18.90;35.60;;;;;;10554814;27;20223;-74
2022/06/03 06:03:26;;;;;;;3.93;3.63;;;19.10;35.70;;;;;;10555909;27;20215;-75
2022/06/03 06:08:36;;;;;;;3.73;3.53;;;19.30;35.90;;;;;;10557170;27;20235;-75
2022/06/03 06:14:03;;;;;;;3.77;3.57;;;19.50;36.10;;;;;;10550533;27;20838;-74
2022/06/03 06:19:10;;;;;;;4.23;3.90;;;19.80;36.30;;;;;;10512095;28;20266;-74
2022/06/03 06:24:16;;;;;;;4.30;3.90;;;20.00;35.60;;;;;;10518995;28;20220;-75
2022/06/03 06:29:48;;;;;;;3.87;3.60;;;20.20;35.60;;;;;;10516573;28;20302;-75
2022/06/03 06:35:16;;;;;;;4.07;3.70;;;20.40;36.20;;;;;;10508563;28;20228;-75
2022/06/03 06:40:37;;;;;;;3.40;3.20;;;20.70;35.70;;;;;;10493888;28;20224;-75
2022/06/03 06:45:57;;;;;;;3.87;3.57;;;21.00;36.30;;;;;;10510771;28;20250;-75
2022/06/03 06:51:06;;;;;;;3.00;2.80;;;21.20;36.30;;;;;;10503183;28;20594;-75
2022/06/03 06:56:17;;;;;;;3.67;3.37;;;21.40;35.50;;;;;;10502386;28;20238;-75
2022/06/03 07:01:27;;;;;;;5.13;2.97;;;21.60;35.40;;;;;;10504615;28;20219;-75
2022/06/03 07:06:41;;;;;;;3.27;3.07;;;21.80;35.30;;;;;;10511185;28;20227;-75
2022/06/03 07:11:52;;;;;;;3.07;2.87;;;22.00;35.20;;;;;;10512512;28;20255;-74
2022/06/03 07:22:41;;;;;;;3.37;3.17;;;22.20;35.00;;;;;;10536320;27;20231;-74
2022/06/03 07:27:53;;;;;;;2.87;2.67;;;22.40;35.20;;;;;;10543591;28;20734;-74
2022/06/03 07:33:01;;;;;;;2.77;2.63;;;22.60;35.00;;;;;;10548302;27;20228;-74
2022/06/03 07:38:15;;;;;;;2.77;2.57;;;22.80;34.90;;;;;;10548513;28;20550;-76
2022/06/03 07:43:23;;;;;;;2.90;2.70;;;23.00;34.90;;;;;;10541521;27;20231;-75
2022/06/03 07:48:32;;;;;;;2.63;2.43;;;23.20;34.70;;;;;;10534602;28;20231;-76
2022/06/03 07:53:44;;;;;;;2.60;2.40;;;23.40;34.40;;;;;;10532598;28;20593;-76
2022/06/03 07:58:51;;;;;;;2.33;2.20;;;23.60;34.40;;;;;;10530991;28;20321;-75
2022/06/03 08:03:55;;;;;;;2.53;2.33;;;23.90;34.50;;;;;;10535318;28;20227;-76
2022/06/03 08:14:27;;;;;;;2.70;2.50;;;24.40;33.80;;;;;;10488564;28;20586;-74
2022/06/03 08:19:35;;;;;;;2.80;2.60;;;24.60;33.50;;;;;;10492217;28;20235;-75
2022/06/03 08:24:42;;;;;;;2.67;2.47;;;24.90;33.40;;;;;;10490769;28;20232;-74
2022/06/03 08:29:50;;;;;;;2.60;2.40;;;25.10;33.50;;;;;;10495158;28;20223;-75
2022/06/03 08:34:58;;;;;;;2.67;2.57;;;25.30;33.10;;;;;;10489326;28;20234;-75
2022/06/03 08:40:15;;;;;;;2.80;2.60;;;25.50;32.90;;;;;;10528151;28;20224;-76
2022/06/03 08:45:31;;;;;;;2.57;2.40;;;25.80;32.50;;;;;;10543061;28;20225;-76
2022/06/03 08:50:43;;;;;;;2.60;2.20;;;26.00;31.90;;;;;;10542400;27;20845;-76
2022/06/03 08:55:59;;;;;;;2.80;2.60;;;26.20;31.50;;;;;;10530729;28;20298;-76
2022/06/03 09:01:14;;;;;;;2.60;2.40;;;26.40;31.50;;;;;;10541386;28;20298;-76
2022/06/03 09:06:32;;;;;;;3.07;2.77;;;26.60;30.90;;;;;;10535684;28;20234;-75
2022/06/03 09:11:41;;;;;;;2.80;2.57;;;26.80;30.80;;;;;;10534283;28;20729;-75
2022/06/03 09:16:45;;;;;;;2.37;2.20;;;27.00;29.70;;;;;;10539713;28;20264;-75
2022/06/03 09:21:51;;;;;;;2.37;2.27;;;27.20;30.70;;;;;;10542664;28;20306;-77
2022/06/03 09:26:59;;;;;;;2.57;2.37;;;27.30;29.90;;;;;;10542972;28;20218;-76
2022/06/03 09:32:05;;;;;;;2.57;2.47;;;27.60;30.00;;;;;;10539694;28;20224;-76
2022/06/03 09:37:12;;;;;;;3.00;2.80;;;27.80;30.00;;;;;;10541677;28;20228;-77
2022/06/03 09:42:18;;;;;;;2.70;2.50;;;28.00;29.70;;;;;;10542438;28;20299;-77
2022/06/03 09:47:24;;;;;;;2.63;2.43;;;28.10;30.20;;;;;;10537912;28;20806;-76
2022/06/03 09:52:29;;;;;;;2.77;2.50;;;28.40;29.60;;;;;;10543017;28;20238;-76
2022/06/03 09:57:36;;;;;;;2.83;2.63;;;28.60;29.20;;;;;;10543218;27;20238;-76
2022/06/03 10:02:40;;;;;;;2.80;2.60;;;28.70;28.70;;;;;;10544052;27;20234;-77
2022/06/03 10:07:46;;;;;;;3.20;2.80;;;28.90;29.00;;;;;;10542988;27;20318;-76
2022/06/03 10:12:53;;;;;;;3.67;2.70;;;29.10;28.50;;;;;;10535102;28;20241;-77
2022/06/03 10:18:02;;;;;;;2.97;2.77;;;29.30;28.70;;;;;;10538286;28;20227;-76
2022/06/03 10:23:09;;;;;;;3.00;2.80;;;29.50;27.80;;;;;;10538706;28;20234;-76
2022/06/03 10:28:14;;;;;;;2.83;2.73;;;29.70;27.50;;;;;;10534874;27;20215;-76
2022/06/03 10:33:19;;;;;;;2.40;2.20;;;29.80;27.50;;;;;;10536455;28;20235;-76
2022/06/03 10:38:28;;;;;;;3.10;2.80;;;29.90;27.40;;;;;;10535226;28;20724;-76
2022/06/03 10:43:33;;;;;;;2.37;2.27;;;30.00;26.70;;;;;;10543649;28;20238;-76
2022/06/03 10:48:36;;;;;;;2.33;2.23;;;30.10;27.10;;;;;;10545599;27;20220;-77
2022/06/03 11:04:28;;;;;;;2.40;2.30;;;30.50;26.60;;;;;;10547445;27;20231;-75
2022/06/03 11:09:34;;;;;;;2.70;2.60;;;30.60;25.70;;;;;;10544339;28;20219;-77
2022/06/03 11:14:39;;;;;;;2.70;2.50;;;30.60;25.90;;;;;;10542413;27;20764;-77
2022/06/03 11:19:46;;;;;;;3.80;2.40;;;30.70;25.90;;;;;;10538399;28;20238;-76
2022/06/03 11:24:57;;;;;;;2.73;2.47;;;30.80;25.90;;;;;;10531808;28;20227;-76
2022/06/03 11:30:06;;;;;;;2.30;2.20;;;30.90;25.00;;;;;;10542525;27;20234;-77
2022/06/03 11:35:19;;;;;;;2.83;2.40;;;30.90;25.00;;;;;;10490374;28;20238;-77
2022/06/03 11:40:29;;;;;;;2.70;2.50;;;31.00;24.70;;;;;;10482097;28;20250;-76
2022/06/03 11:45:38;;;;;;;2.10;2.00;;;31.00;24.60;;;;;;10483649;28;20761;-74
2022/06/03 11:50:42;;;;;;;2.33;2.23;;;31.00;25.00;;;;;;10521097;28;20215;-77
2022/06/03 11:55:46;;;;;;;2.63;2.43;;;31.10;25.50;;;;;;10534487;28;20227;-76
2022/06/03 12:00:53;;;;;;;2.50;2.30;;;31.10;25.00;;;;;;10550627;27;20227;-74
2022/06/03 12:06:01;;;;;;;3.20;2.30;;;31.20;24.60;;;;;;10550702;27;20235;-76
2022/06/03 12:13:13;;;;;;;2.40;2.30;;;31.30;24.40;;;;;;10553186;27;20759;-77
2022/06/03 12:16:54;;;;;;;2.40;2.20;;;31.40;24.40;;;;;;10524837;28;20235;-76
2022/06/03 12:22:15;;;;;;;2.40;2.20;;;31.50;24.70;;;;;;10543416;28;20312;-79
2022/06/03 12:27:41;;;;;;;2.27;2.17;;;31.50;23.80;;;;;;10526521;28;20223;-78
2022/06/03 12:32:52;;;;;;;2.20;2.10;;;31.60;23.70;;;;;;10548992;28;20257;-77
2022/06/03 12:38:33;;;;;;;2.13;2.03;;;31.60;22.90;;;;;;10515898;28;20247;-77
2022/06/03 12:44:00;;;;;;;2.73;2.27;;;31.60;23.70;;;;;;10466470;28;20221;-77
2022/06/03 12:49:05;;;;;;;2.00;1.90;;;31.60;23.40;;;;;;10518063;28;20223;-77
2022/06/03 12:54:18;;;;;;;2.30;2.10;;;31.60;23.50;;;;;;10541361;28;20233;-77
2022/06/03 12:59:29;;;;;;;2.40;2.20;;;31.70;22.90;;;;;;10541850;28;20223;-77
2022/06/03 13:05:09;;;;;;;2.13;2.03;;;31.80;22.90;;;;;;10543603;28;20215;-77
2022/06/03 13:10:41;;;;;;;2.00;1.90;;;31.90;23.00;;;;;;10371921;28;20634;-77
2022/06/03 13:15:51;;;;;;;2.30;2.10;;;31.90;22.10;;;;;;10520721;28;20215;-77
2022/06/03 13:21:19;;;;;;;2.00;1.90;;;31.80;22.40;;;;;;10537359;28;20231;-76
2022/06/03 13:27:00;;;;;;;2.03;1.87;;;31.80;22.70;;;;;;10537770;28;20705;-76
2022/06/03 13:32:16;;;;;;;2.00;1.90;;;31.80;22.00;;;;;;10533884;27;20219;-78
2022/06/03 13:37:31;;;;;;;2.10;2.00;;;31.90;22.10;;;;;;10559067;27;20226;-76
2022/06/03 13:43:17;;;;;;;2.00;1.90;;;31.90;21.70;;;;;;10520698;28;20233;-77
2022/06/03 13:48:28;;;;;;;2.10;2.00;;;31.90;22.10;;;;;;10545737;28;20309;-77
2022/06/03 13:53:32;;;;;;;2.00;1.90;;;31.80;22.00;;;;;;10550377;28;20231;-77
2022/06/03 13:58:39;;;;;;;1.87;1.77;;;31.90;22.10;;;;;;10552690;28;20313;-76
2022/06/03 14:03:52;;;;;;;1.90;1.80;;;32.00;22.10;;;;;;10520712;28;20227;-77
2022/06/03 14:09:00;;;;;;;2.50;2.10;;;32.00;21.70;;;;;;10547530;28;20590;-76
2022/06/03 14:14:10;;;;;;;2.20;2.10;;;32.10;22.20;;;;;;10533748;28;20223;-77
2022/06/03 14:19:33;;;;;;;2.10;2.00;;;32.00;21.90;;;;;;10531153;27;20231;-77
2022/06/03 14:24:57;;;;;;;2.07;1.97;;;32.00;22.10;;;;;;10540685;28;20234;-77
2022/06/03 14:30:08;;;;;;;2.00;1.90;;;32.10;22.00;;;;;;10534392;27;20246;-77
2022/06/03 14:35:19;;;;;;;2.03;1.93;;;32.10;21.40;;;;;;10547410;28;20227;-78
2022/06/03 14:40:25;;;;;;;2.60;1.90;;;32.10;21.20;;;;;;10541686;28;20237;-77
2022/06/03 14:45:31;;;;;;;2.30;2.10;;;32.10;21.70;;;;;;10542501;27;20231;-77
2022/06/03 14:50:39;;;;;;;2.23;2.13;;;32.00;21.70;;;;;;10540397;28;20227;-79
2022/06/03 14:55:57;;;;;;;2.13;2.00;;;32.00;21.50;;;;;;10540956;27;20230;-76
2022/06/03 15:01:25;;;;;;;2.27;2.10;;;32.00;21.50;;;;;;10508212;28;20238;-76
2022/06/03 15:06:35;;;;;;;2.10;2.00;;;31.90;21.20;;;;;;10497371;28;20231;-76
2022/06/03 15:11:43;;;;;;;2.47;2.03;;;31.80;21.30;;;;;;10501611;28;20224;-75
2022/06/03 15:16:51;;;;;;;2.70;2.10;;;31.80;21.20;;;;;;10502986;28;20259;-74
2022/06/03 15:21:56;;;;;;;2.03;1.93;;;31.60;21.50;;;;;;10517834;28;20587;-75
2022/06/03 15:27:00;;;;;;;2.53;2.33;;;31.50;21.90;;;;;;10522530;28;20697;-75
2022/06/03 15:32:05;;;;;;;1.87;1.77;;;31.50;21.90;;;;;;10509522;28;20219;-76
2022/06/03 15:37:10;;;;;;;2.00;1.90;;;31.40;21.80;;;;;;10515928;28;20224;-76
2022/06/03 15:42:23;;;;;;;3.53;1.87;;;31.40;21.80;;;;;;10504737;28;20700;-76
2022/06/03 15:47:33;;;;;;;2.13;2.03;;;31.30;21.70;;;;;;10508535;28;20712;-75
2022/06/03 15:52:50;;;;;;;2.17;2.07;;;31.30;22.00;;;;;;10503259;28;20256;-76
2022/06/03 15:58:03;;;;;;;2.10;2.00;;;31.20;22.50;;;;;;10510173;28;20702;-76
2022/06/03 16:03:11;;;;;;;1.90;1.80;;;31.20;22.90;;;;;;10506521;28;20227;-75
2022/06/03 16:08:43;;;;;;;2.77;1.80;;;31.10;23.00;;;;;;10500746;28;20230;-75
2022/06/03 16:13:57;;;;;;;1.97;1.87;;;31.00;22.70;;;;;;10508005;28;20228;-75
2022/06/03 16:19:18;;;;;;;2.97;2.77;;;30.90;22.70;;;;;;10503536;28;20223;-76
2022/06/03 16:24:29;;;;;;;4.40;3.70;;;30.70;22.70;;;;;;10509192;28;20235;-76
2022/06/03 16:29:57;;;;;;;3.00;2.80;;;30.60;23.40;;;;;;10499137;28;20232;-76
2022/06/03 16:35:07;;;;;;;2.63;2.43;;;30.60;23.90;;;;;;10500236;28;20235;-77
2022/06/03 16:40:17;;;;;;;2.40;2.20;;;30.40;24.10;;;;;;10506304;28;20219;-76
2022/06/03 16:50:54;;;;;;;5.47;2.53;;;30.20;24.70;;;;;;10503723;28;20215;-76
2022/06/03 16:56:00;;;;;;;3.00;2.40;;;30.00;24.50;;;;;;10499357;28;20223;-78
2022/06/03 17:01:05;;;;;;;2.80;2.60;;;29.90;25.00;;;;;;10547879;28;20619;-75
2022/06/03 17:06:12;;;;;;;2.97;2.10;;;29.70;25.30;;;;;;10544195;27;20576;-77
2022/06/03 17:11:19;;;;;;;2.30;2.10;;;29.30;25.30;;;;;;10575362;27;20218;-75
2022/06/03 17:16:29;;;;;;;2.20;2.03;;;28.80;25.30;;;;;;10578811;28;20257;-75
2022/06/03 17:21:41;;;;;;;2.20;2.00;;;28.20;25.40;;;;;;10579723;28;20242;-75
2022/06/03 17:26:56;;;;;;;2.57;1.90;;;27.60;26.50;;;;;;10579947;27;20223;-75
2022/06/03 17:32:13;;;;;;;3.83;2.00;;;27.00;27.40;;;;;;10579338;28;20235;-75
2022/06/03 17:37:32;;;;;;;3.40;2.33;;;26.60;27.70;;;;;;10579035;27;20694;-75
2022/06/03 17:42:42;;;;;;;3.53;2.30;;;26.00;29.70;;;;;;10577819;27;20235;-74
2022/06/03 17:47:50;;;;;;;3.20;2.40;;;25.40;30.60;;;;;;10578275;28;20238;-74
2022/06/03 17:58:47;;;;;;;3.43;2.40;;;24.20;32.50;;;;;;10578826;27;20223;-75
2022/06/03 18:04:12;;;;;;;3.67;2.20;;;23.60;32.30;;;;;;10579076;28;20663;-76
2022/06/03 18:09:48;;;;;;;5.67;2.00;;;23.20;34.00;;;;;;10577895;27;20222;-75
2022/06/03 18:14:58;;;;;;;2.33;1.90;;;22.50;32.70;;;;;;10553381;28;20238;-77
2022/06/03 18:20:12;;;;;;;1.73;1.60;;;22.10;35.20;;;;;;10578476;27;20234;-75
2022/06/03 18:25:35;;;;;;;1.80;1.63;;;21.90;35.60;;;;;;10578538;27;20690;-75
2022/06/03 18:30:48;;;;;;;2.23;1.80;;;22.00;35.50;;;;;;10579335;28;20241;-79
2022/06/03 18:36:13;;;;;;;2.40;1.70;;;22.10;35.40;;;;;;10533742;27;20232;-78
2022/06/03 18:41:31;;;;;;;1.70;1.60;;;22.20;34.70;;;;;;10551540;28;20749;-74
2022/06/03 18:46:47;;;;;;;2.07;1.90;;;22.20;35.30;;;;;;10558375;27;20344;-75
2022/06/03 18:52:00;;;;;;;2.00;1.90;;;22.20;35.60;;;;;;10546597;28;20943;-74
2022/06/03 18:57:07;;;;;;;2.97;2.10;;;22.10;36.80;;;;;;10538608;28;20219;-74
2022/06/03 19:02:22;;;;;;;2.50;2.30;;;21.90;36.50;;;;;;10545508;27;20230;-76
2022/06/03 19:07:48;;;;;;;2.50;2.30;;;21.90;37.60;;;;;;10543658;27;20221;-76
2022/06/03 19:13:08;;;;;;;3.67;2.80;;;21.80;37.20;;;;;;10544638;28;20233;-76
2022/06/03 19:18:37;;;;;;;3.00;2.40;;;21.90;38.10;;;;;;10549457;27;20222;-76
2022/06/03 19:24:00;;;;;;;2.83;2.53;;;21.90;37.00;;;;;;10560811;27;20242;-76
2022/06/03 19:29:11;;;;;;;3.07;2.20;;;21.90;38.20;;;;;;10553389;27;20218;-76
2022/06/03 19:34:18;;;;;;;2.80;2.60;;;21.90;38.20;;;;;;10556723;27;20610;-77
2022/06/03 19:39:29;;;;;;;3.13;2.30;;;22.00;38.30;;;;;;10549197;28;20301;-77
2022/06/03 19:45:03;;;;;;;2.70;2.50;;;21.90;38.20;;;;;;10551423;27;20246;-76
2022/06/03 19:55:52;;;;;;;2.10;2.00;;;22.20;38.40;;;;;;10505199;28;20750;-77
2022/06/03 20:00:59;;;;;;;2.87;2.30;;;22.30;38.50;;;;;;10553030;27;20238;-76
2022/06/03 20:06:14;;;;;;;2.30;2.10;;;22.40;38.00;;;;;;10547381;27;20280;-77
2022/06/03 20:16:54;;;;;;;3.53;2.50;;;22.60;38.40;;;;;;10550571;27;20225;-77
2022/06/03 20:22:07;;;;;;;3.00;2.40;;;22.60;38.60;;;;;;10552732;28;20258;-76
2022/06/03 20:27:25;;;;;;;2.33;2.13;;;22.50;38.20;;;;;;10555692;28;20234;-76
2022/06/03 20:32:53;;;;;;;2.90;2.70;;;22.50;38.10;;;;;;10551632;28;20279;-77
2022/06/03 20:38:12;;;;;;;3.77;2.70;;;22.50;38.70;;;;;;10545258;28;20232;-76
2022/06/03 20:43:26;;;;;;;3.10;2.80;;;22.50;38.70;;;;;;10546742;28;20214;-76
2022/06/03 20:48:45;;;;;;;3.37;3.07;;;22.50;38.70;;;;;;10550193;28;20231;-77
2022/06/03 20:53:53;;;;;;;2.90;2.70;;;22.50;38.80;;;;;;10550929;28;20261;-77
2022/06/03 20:59:00;;;;;;;3.17;2.90;;;22.50;38.70;;;;;;10559053;28;20238;-76
2022/06/03 21:14:53;;;;;;;2.53;2.33;;;22.00;38.30;;;;;;10569526;27;20227;-76
2022/06/03 21:19:57;;;;;;;3.00;2.80;;;21.90;37.80;;;;;;10581586;27;20234;-76
2022/06/03 21:25:02;;;;;;;3.10;2.90;;;21.90;38.10;;;;;;10558294;28;20726;-76
2022/06/03 21:30:07;;;;;;;2.23;2.13;;;21.90;38.30;;;;;;10572548;27;20676;-77
2022/06/03 21:35:38;;;;;;;3.17;2.90;;;21.90;38.20;;;;;;10572904;27;20230;-76
2022/06/03 21:40:47;;;;;;;3.10;2.80;;;21.80;39.30;;;;;;10570302;28;20231;-76
2022/06/03 21:46:01;;;;;;;3.13;2.93;;;21.80;39.60;;;;;;10574754;27;20230;-76
2022/06/03 21:51:15;;;;;;;3.23;2.93;;;21.80;39.80;;;;;;10529230;28;20223;-77
2022/06/03 21:56:32;;;;;;;3.57;3.27;;;21.80;39.50;;;;;;10561181;27;20223;-76
2022/06/03 22:01:38;;;;;;;3.87;3.20;;;21.80;39.90;;;;;;10572657;27;20226;-76
2022/06/03 22:06:43;;;;;;;3.30;2.67;;;21.70;38.00;;;;;;10566289;27;20258;-76
2022/06/03 22:17:20;;;;;;;3.30;3.00;;;21.80;39.40;;;;;;10485977;28;20302;-77
2022/06/03 22:22:23;;;;;;;2.83;2.63;;;21.80;38.10;;;;;;10571237;28;20231;-76
2022/06/03 22:27:38;;;;;;;2.57;2.37;;;21.90;38.20;;;;;;10569961;27;20229;-76
2022/06/03 22:32:45;;;;;;;3.17;2.97;;;21.80;39.70;;;;;;10571726;27;20242;-76
2022/06/03 22:43:25;;;;;;;2.93;2.83;;;21.90;39.70;;;;;;10527504;28;20237;-76
2022/06/03 22:48:28;;;;;;;3.50;3.20;;;21.90;39.50;;;;;;10529797;28;20227;-76
2022/06/03 22:53:33;;;;;;;3.37;2.40;;;21.90;38.20;;;;;;10565420;28;20730;-76
2022/06/03 22:58:38;;;;;;;2.80;2.60;;;21.90;38.20;;;;;;10566247;27;20229;-76
2022/06/03 23:03:42;;;;;;;3.13;2.93;;;21.80;38.70;;;;;;10562067;27;20236;-76
2022/06/03 23:08:48;;;;;;;2.77;2.60;;;21.80;38.10;;;;;;10560495;28;20302;-76
2022/06/03 23:13:52;;;;;;;3.37;3.17;;;21.70;38.50;;;;;;10564967;28;20231;-77
2022/06/03 23:19:04;;;;;;;2.57;2.33;;;21.80;38.70;;;;;;10566647;28;20321;-76
2022/06/03 23:24:08;;;;;;;3.67;3.47;;;21.70;38.00;;;;;;10566343;27;20725;-76
2022/06/03 23:29:13;;;;;;;4.73;4.23;;;21.70;38.40;;;;;;10559541;28;20231;-76
2022/06/03 23:34:16;;;;;;;3.97;3.67;;;21.60;38.50;;;;;;10572540;27;20229;-76
2022/06/03 23:39:19;;;;;;;4.77;4.37;;;21.50;37.80;;;;;;10561288;27;20218;-77
2022/06/03 23:49:45;;;;;;;4.10;3.80;;;21.40;39.00;;;;;;10563581;27;20223;-76
2022/06/03 23:54:48;;;;;;;4.00;3.80;;;21.40;38.20;;;;;;10569495;28;20235;-76
2022/06/03 23:59:53;;;;;;;6.47;4.50;;;21.30;38.60;;;;;;10558907;28;20237;-75
